English version
lugares datos climáticos artículos

datos de Mairena del Aljarafe, Sevilla, España
Año Mes Dia Mostrar

  Fecha       hora        Temp.ext.    Hum.ext.  Dir.Viento   Vel.Viento  Presion al NM   T.int. Prec.hoy 

   25-09-2017    15:20      31.0º(+1.7)     25%      225(SW)      4.8 km/h    1018.3 hpa     28.6º    0.0 mm
   25-09-2017    15:15      30.8º(+1.5)     25%      247(SW)      1.6 km/h    1018.2 hpa     28.9º    0.0 mm
   25-09-2017    15:10      30.6º(+1.5)     25%      270 (W)      6.4 km/h    1018.5 hpa     29.4º    0.0 mm
   25-09-2017    15:05      30.7º(+1.8)     25%      270 (W)      9.7 km/h    1018.5 hpa     29.5º    0.0 mm
   25-09-2017    15:00      30.7º(+1.5)     25%      270 (W)      3.2 km/h    1018.6 hpa     29.5º    0.0 mm
   25-09-2017    14:55      30.8º(+1.9)     25%      270 (W)      6.4 km/h    1018.7 hpa     29.5º    0.0 mm
   25-09-2017    14:50      31.0º(+2.4)     25%      247(SW)      3.2 km/h    1018.8 hpa     29.5º    0.0 mm
   25-09-2017    14:45      30.8º(+2.1)     25%      292 (W)      1.6 km/h    1018.8 hpa     29.4º    0.0 mm
   25-09-2017    14:40      30.6º(+2.5)     26%      270 (W)      4.8 km/h    1018.9 hpa     29.4º    0.0 mm
   25-09-2017    14:35      30.6º(+2.8)     25%      270 (W)      4.8 km/h    1018.8 hpa     29.4º    0.0 mm
   25-09-2017    14:30      30.6º(+2.6)     27%      292 (W)      3.2 km/h    1019.1 hpa     29.4º    0.0 mm
   25-09-2017    14:25      30.5º(+2.1)     26%      270 (W)      4.8 km/h    1019.1 hpa     29.4º    0.0 mm
   25-09-2017    14:20      30.3º(+1.9)     28%      270 (W)      1.6 km/h    1019.1 hpa     29.4º    0.0 mm
   25-09-2017    14:15      29.9º(+1.5)     29%         -         0.0 km/h    1019.1 hpa     29.4º    0.0 mm
   25-09-2017    14:10      29.8º(+1.2)     29%      270 (W)      1.6 km/h    1019.1 hpa     29.4º    0.0 mm
   25-09-2017    14:05      29.8º(+1.3)     29%      270 (W)      1.6 km/h    1019.3 hpa     29.4º    0.0 mm
   25-09-2017    14:00      29.8º(+1.6)     28%      270 (W)      3.2 km/h    1019.4 hpa     29.4º    0.0 mm
   25-09-2017    13:55      29.9º(+2.2)     29%         -         0.0 km/h    1019.4 hpa     29.3º    0.0 mm
   25-09-2017    13:50      29.7º(+2.0)     29%         -         0.0 km/h    1019.4 hpa     29.3º    0.0 mm
   25-09-2017    13:45      29.5º(+1.7)     30%         -         0.0 km/h    1019.5 hpa     29.3º    0.0 mm
   25-09-2017    13:40      29.3º(+1.0)     30%         -         0.0 km/h    1019.6 hpa     29.3º    0.0 mm
   25-09-2017    13:35      29.3º(+1.2)     30%         -         0.0 km/h    1019.6 hpa     29.3º    0.0 mm
   25-09-2017    13:30      29.1º(+1.2)     31%         -         0.0 km/h    1019.7 hpa     29.3º    0.0 mm
   25-09-2017    13:25      28.7º(+0.8)     32%         -         0.0 km/h    1019.8 hpa     29.3º    0.0 mm
   25-09-2017    13:20      28.6º(+0.9)     32%         -         0.0 km/h    1019.8 hpa     29.3º    0.0 mm
   25-09-2017    13:15      28.3º(+0.9)     32%         -         0.0 km/h    1019.9 hpa     29.3º    0.0 mm
   25-09-2017    13:10      28.3º(+1.5)     32%         -         0.0 km/h    1019.9 hpa     29.3º    0.0 mm
   25-09-2017    13:05      28.2º(+1.6)     32%         -         0.0 km/h    1019.9 hpa     29.3º    0.0 mm
   25-09-2017    13:00      28.1º(+1.4)     33%         -         0.0 km/h    1019.9 hpa     29.3º    0.0 mm
   25-09-2017    12:55      27.8º(+0.6)     32%         -         0.0 km/h    1020.0 hpa     29.2º    0.0 mm
   25-09-2017    12:50      27.9º(+1.1)     33%         -         0.0 km/h    1020.1 hpa     29.2º    0.0 mm
   25-09-2017    12:45      27.6º(+1.0)     37%         -         0.0 km/h    1020.1 hpa     29.2º    0.0 mm
   25-09-2017    12:40      27.1º(+0.8)     39%         -         0.0 km/h    1020.2 hpa     29.2º    0.0 mm
   25-09-2017    12:35      26.9º(+0.8)     39%         -         0.0 km/h    1020.3 hpa     29.2º    0.0 mm
   25-09-2017    12:30      26.8º(+0.8)     40%         -         0.0 km/h    1020.4 hpa     29.2º    0.0 mm
   25-09-2017    12:25      26.3º(+0.5)     40%         -         0.0 km/h    1020.3 hpa     29.2º    0.0 mm
   25-09-2017    12:20      26.1º(+0.6)     41%         -         0.0 km/h    1020.3 hpa     29.2º    0.0 mm
   25-09-2017    12:15      25.8º(+0.5)     43%         -         0.0 km/h    1020.4 hpa     29.2º    0.0 mm
   25-09-2017    12:10      25.7º(+0.4)     44%         -         0.0 km/h    1020.4 hpa     29.2º    0.0 mm
   25-09-2017    12:05      25.6º(+0.4)     46%         -         0.0 km/h    1020.4 hpa     29.2º    0.0 mm
   25-09-2017    12:00      25.4º(+0.6)     46%         -         0.0 km/h    1020.3 hpa     29.2º    0.0 mm
   25-09-2017    11:55      25.3º(+0.8)     47%         -         0.0 km/h    1020.4 hpa     29.2º    0.0 mm
   25-09-2017    11:50      25.2º(+0.9)     48%         -         0.0 km/h    1020.4 hpa     29.2º    0.0 mm
   25-09-2017    11:45      25.0º(+0.8)     49%         -         0.0 km/h    1020.4 hpa     29.2º    0.0 mm
   25-09-2017    11:40      24.7º(+0.8)     50%         -         0.0 km/h    1020.4 hpa     29.2º    0.0 mm
   25-09-2017    11:35      24.6º(+0.7)     50%         -         0.0 km/h    1020.4 hpa     29.2º    0.0 mm
   25-09-2017    11:30      24.6º(+0.8)     48%         -         0.0 km/h    1020.4 hpa     29.2º    0.0 mm
   25-09-2017    11:25      24.3º(+0.6)     50%         -         0.0 km/h    1020.4 hpa     29.2º    0.0 mm
   25-09-2017    11:20      24.1º(+0.7)     51%         -         0.0 km/h    1020.4 hpa     29.2º    0.0 mm
   25-09-2017    11:15      24.1º(+0.9)     51%         -         0.0 km/h    1020.5 hpa     29.2º    0.0 mm
   25-09-2017    11:10      24.1º(+1.0)     51%         -         0.0 km/h    1020.5 hpa     29.3º    0.0 mm
   25-09-2017    11:05      23.9º(+0.8)     54%         -         0.0 km/h    1020.5 hpa     29.3º    0.0 mm
   25-09-2017    11:00      23.5º(+0.6)     56%         -         0.0 km/h    1020.5 hpa     29.3º    0.0 mm
   25-09-2017    10:55      23.2º(+0.6)     57%         -         0.0 km/h    1020.5 hpa     29.3º    0.0 mm
   25-09-2017    10:50      22.9º(+0.5)     61%         -         0.0 km/h    1020.4 hpa     29.3º    0.0 mm
   25-09-2017    10:45      22.5º(+0.2)     63%         -         0.0 km/h    1020.5 hpa     29.3º    0.0 mm
   25-09-2017    10:40      22.3º(+0.0)     65%         -         0.0 km/h    1020.3 hpa     29.3º    0.0 mm
   25-09-2017    10:35      22.1º(-0.1)     67%         -         0.0 km/h    1020.3 hpa     29.3º    0.0 mm
   25-09-2017    10:30      21.9º(-0.1)     68%         -         0.0 km/h    1020.1 hpa     29.3º    0.0 mm
   25-09-2017    10:25      21.7º(-0.3)     72%         -         0.0 km/h    1020.2 hpa     29.3º    0.0 mm
   25-09-2017    10:20      21.4º(-0.7)     75%         -         0.0 km/h    1020.2 hpa     29.3º    0.0 mm
   25-09-2017    10:15      21.2º(-0.9)     74%         -         0.0 km/h    1020.1 hpa     29.3º    0.0 mm
   25-09-2017    10:10      21.2º(-0.8)     74%         -         0.0 km/h    1020.1 hpa     29.3º    0.0 mm
   25-09-2017    10:05      21.2º(-0.6)     75%         -         0.0 km/h    1020.0 hpa     29.3º    0.0 mm
   25-09-2017    10:00      21.1º(-0.3)     76%         -         0.0 km/h    1020.0 hpa     29.3º    0.0 mm
   25-09-2017    09:55      21.0º(-0.2)     78%         -         0.0 km/h    1019.9 hpa     29.3º    0.0 mm
   25-09-2017    09:50      20.7º(-0.1)     81%         -         0.0 km/h    1019.8 hpa     29.3º    0.0 mm
   25-09-2017    09:45      20.3º(-0.4)     81%         -         0.0 km/h    1019.7 hpa     29.3º    0.0 mm
   25-09-2017    09:40      20.0º(-0.5)     82%         -         0.0 km/h    1019.7 hpa     29.3º    0.0 mm
   25-09-2017    09:35      19.8º(-0.5)     82%         -         0.0 km/h    1019.7 hpa     29.3º    0.0 mm
   25-09-2017    09:30      19.7º(-0.4)     82%         -         0.0 km/h    1019.7 hpa     29.3º    0.0 mm
   25-09-2017    09:25      19.7º(-0.1)     83%         -         0.0 km/h    1019.9 hpa     29.3º    0.0 mm
   25-09-2017    09:20      19.6º(-0.1)     83%         -         0.0 km/h    1019.8 hpa     29.3º    0.0 mm
   25-09-2017    09:15      19.5º(+0.1)     83%      022 (N)      1.6 km/h    1019.7 hpa     29.3º    0.0 mm
   25-09-2017    09:10      19.4º(+0.1)     83%      045(NE)      1.6 km/h    1019.6 hpa     29.3º    0.0 mm
   25-09-2017    09:05      19.3º(+0.0)     84%         -         0.0 km/h    1019.6 hpa     29.3º    0.0 mm
   25-09-2017    09:00      19.2º(+0.0)     84%         -         0.0 km/h    1019.5 hpa     29.3º    0.0 mm
   25-09-2017    08:55      19.1º(+0.0)     84%         -         0.0 km/h    1019.6 hpa     29.3º    0.0 mm
   25-09-2017    08:50      18.9º(-0.1)     84%         -         0.0 km/h    1019.6 hpa     29.3º    0.0 mm
   25-09-2017    08:45      18.8º(-0.1)     84%         -         0.0 km/h    1019.5 hpa     29.3º    0.0 mm
   25-09-2017    08:40      18.8º(-0.1)     84%         -         0.0 km/h    1019.5 hpa     29.3º    0.0 mm
   25-09-2017    08:35      18.7º(-0.2)     84%         -         0.0 km/h    1019.4 hpa     29.3º    0.0 mm
   25-09-2017    08:30      18.7º(-0.2)     84%         -         0.0 km/h    1019.3 hpa     29.3º    0.0 mm
   25-09-2017    08:25      18.7º(-0.2)     83%         -         0.0 km/h    1019.3 hpa     29.3º    0.0 mm
   25-09-2017    08:20      18.7º(-0.3)     83%         -         0.0 km/h    1019.3 hpa     29.3º    0.0 mm
   25-09-2017    08:15      18.8º(-0.3)     82%         -         0.0 km/h    1019.4 hpa     29.4º    0.0 mm
   25-09-2017    08:10      18.7º(-0.4)     81%         -         0.0 km/h    1019.3 hpa     29.4º    0.0 mm
   25-09-2017    08:05      18.7º(-0.5)     80%         -         0.0 km/h    1019.2 hpa     29.4º    0.0 mm
   25-09-2017    08:00      18.6º(-0.7)     79%         -         0.0 km/h    1019.2 hpa     29.4º    0.0 mm
   25-09-2017    07:55      18.6º(-0.8)     79%         -         0.0 km/h    1019.0 hpa     29.4º    0.0 mm
   25-09-2017    07:50      18.6º(-1.0)     80%         -         0.0 km/h    1019.1 hpa     29.4º    0.0 mm
   25-09-2017    07:45      18.6º(-1.1)     80%         -         0.0 km/h    1019.1 hpa     29.4º    0.0 mm
   25-09-2017    07:40      18.6º(-1.2)     81%         -         0.0 km/h    1019.1 hpa     29.4º    0.0 mm
   25-09-2017    07:35      18.7º(-1.2)     82%         -         0.0 km/h    1019.1 hpa     29.4º    0.0 mm
   25-09-2017    07:30      18.7º(-1.3)     82%         -         0.0 km/h    1019.1 hpa     29.4º    0.0 mm
   25-09-2017    07:25      18.7º(-1.3)     83%         -         0.0 km/h    1019.1 hpa     29.4º    0.0 mm
   25-09-2017    07:20      18.8º(-1.2)     84%         -         0.0 km/h    1019.1 hpa     29.4º    0.0 mm
   25-09-2017    07:15      18.8º(-1.1)     84%         -         0.0 km/h    1019.0 hpa     29.4º    0.0 mm
   25-09-2017    07:10      18.8º(-1.1)     85%         -         0.0 km/h    1019.0 hpa     29.4º    0.0 mm
   25-09-2017    07:05      18.9º(-0.9)     85%         -         0.0 km/h    1019.0 hpa     29.4º    0.0 mm
   25-09-2017    07:00      18.9º(-0.9)     86%         -         0.0 km/h    1019.0 hpa     29.4º    0.0 mm
   25-09-2017    06:55      18.9º(-0.8)     86%         -         0.0 km/h    1019.0 hpa     29.4º    0.0 mm
   25-09-2017    06:50      18.8º(-0.7)     87%         -         0.0 km/h    1019.0 hpa     29.4º    0.0 mm
   25-09-2017    06:45      18.8º(-0.5)     87%         -         0.0 km/h    1018.9 hpa     29.4º    0.0 mm
   25-09-2017    06:40      18.7º(-0.5)     87%         -         0.0 km/h    1018.8 hpa     29.4º    0.0 mm
   25-09-2017    06:35      18.6º(-0.6)     88%         -         0.0 km/h    1018.8 hpa     29.4º    0.0 mm
   25-09-2017    06:30      18.6º(-0.6)     88%         -         0.0 km/h    1018.7 hpa     29.4º    0.0 mm
   25-09-2017    06:25      18.5º(-0.6)     88%         -         0.0 km/h    1018.7 hpa     29.4º    0.0 mm
   25-09-2017    06:20      18.6º(-0.6)     88%         -         0.0 km/h    1018.6 hpa     29.4º    0.0 mm
   25-09-2017    06:15      18.6º(-0.7)     88%         -         0.0 km/h    1018.6 hpa     29.4º    0.0 mm
   25-09-2017    06:10      18.6º(-0.8)     88%         -         0.0 km/h    1018.7 hpa     29.4º    0.0 mm
   25-09-2017    06:05      18.6º(-0.8)     88%         -         0.0 km/h    1018.5 hpa     29.4º    0.0 mm
   25-09-2017    06:00      18.6º(-0.8)     88%         -         0.0 km/h    1018.6 hpa     29.4º    0.0 mm
   25-09-2017    05:55      18.6º(-0.7)     89%         -         0.0 km/h    1018.7 hpa     29.4º    0.0 mm
   25-09-2017    05:50      18.5º(-0.9)     89%         -         0.0 km/h    1018.6 hpa     29.4º    0.0 mm
   25-09-2017    05:45      18.5º(-0.9)     89%         -         0.0 km/h    1018.6 hpa     29.4º    0.0 mm
   25-09-2017    05:40      18.5º(-0.9)     89%         -         0.0 km/h    1018.6 hpa     29.4º    0.0 mm
   25-09-2017    05:35      18.5º(-0.9)     89%         -         0.0 km/h    1018.7 hpa     29.4º    0.0 mm
   25-09-2017    05:30      18.5º(-0.8)     89%         -         0.0 km/h    1018.7 hpa     29.4º    0.0 mm
   25-09-2017    05:25      18.4º(-0.9)     89%         -         0.0 km/h    1018.7 hpa     29.4º    0.0 mm
   25-09-2017    05:20      18.4º(-0.9)     89%         -         0.0 km/h    1018.8 hpa     29.4º    0.0 mm
   25-09-2017    05:15      18.4º(-0.9)     89%         -         0.0 km/h    1018.8 hpa     29.4º    0.0 mm
   25-09-2017    05:10      18.3º(-1.1)     89%         -         0.0 km/h    1018.7 hpa     29.3º    0.0 mm
   25-09-2017    05:05      18.3º(-1.2)     89%         -         0.0 km/h    1018.7 hpa     29.4º    0.0 mm
   25-09-2017    05:00      18.3º(-1.3)     89%         -         0.0 km/h    1018.7 hpa     29.4º    0.0 mm
   25-09-2017    04:55      18.2º(-1.5)     88%         -         0.0 km/h    1018.7 hpa     29.4º    0.0 mm
   25-09-2017    04:50      18.2º(-1.5)     88%         -         0.0 km/h    1018.8 hpa     29.4º    0.0 mm
   25-09-2017    04:45      18.3º(-1.4)     88%      135(SE)      1.6 km/h    1018.7 hpa     29.4º    0.0 mm
   25-09-2017    04:40      18.5º(-1.3)     87%         -         0.0 km/h    1018.8 hpa     29.5º    0.0 mm
   25-09-2017    04:35      18.7º(-1.1)     87%         -         0.0 km/h    1018.8 hpa     29.5º    0.0 mm
   25-09-2017    04:30      19.0º(-0.8)     86%         -         0.0 km/h    1018.9 hpa     29.5º    0.0 mm
   25-09-2017    04:25      19.2º(-0.6)     85%         -         0.0 km/h    1018.9 hpa     29.6º    0.0 mm
   25-09-2017    04:20      19.3º(-0.5)     85%         -         0.0 km/h    1018.8 hpa     29.6º    0.0 mm
   25-09-2017    04:15      19.4º(-0.3)     85%         -         0.0 km/h    1018.8 hpa     29.6º    0.0 mm
   25-09-2017    04:10      19.3º(-0.4)     84%         -         0.0 km/h    1018.8 hpa     29.6º    0.0 mm
   25-09-2017    04:05      19.3º(-0.4)     84%         -         0.0 km/h    1018.9 hpa     29.6º    0.0 mm
   25-09-2017    04:00      19.3º(-0.4)     84%         -         0.0 km/h    1018.9 hpa     29.6º    0.0 mm
   25-09-2017    03:55      19.3º(-0.3)     83%         -         0.0 km/h    1018.9 hpa     29.6º    0.0 mm
   25-09-2017    03:50      19.3º(-0.4)     82%         -         0.0 km/h    1018.9 hpa     29.6º    0.0 mm
   25-09-2017    03:45      19.3º(-0.4)     81%         -         0.0 km/h    1018.9 hpa     29.6º    0.0 mm
   25-09-2017    03:40      19.4º(-0.3)     80%         -         0.0 km/h    1018.9 hpa     29.6º    0.0 mm
   25-09-2017    03:35      19.4º(-0.4)     80%         -         0.0 km/h    1019.1 hpa     29.6º    0.0 mm
   25-09-2017    03:30      19.6º(-0.3)     79%         -         0.0 km/h    1019.1 hpa     29.6º    0.0 mm
   25-09-2017    03:25      19.6º(-0.5)     79%         -         0.0 km/h    1019.1 hpa     29.6º    0.0 mm
   25-09-2017    03:20      19.7º(-0.5)     78%         -         0.0 km/h    1019.2 hpa     29.6º    0.0 mm
   25-09-2017    03:15      19.7º(-0.6)     78%         -         0.0 km/h    1019.2 hpa     29.7º    0.0 mm
   25-09-2017    03:10      19.6º(-0.7)     78%         -         0.0 km/h    1019.0 hpa     29.7º    0.0 mm
   25-09-2017    03:05      19.6º(-0.7)     79%         -         0.0 km/h    1019.1 hpa     29.7º    0.0 mm
   25-09-2017    03:00      19.6º(-0.7)     79%         -         0.0 km/h    1019.1 hpa     29.7º    0.0 mm
   25-09-2017    02:55      19.5º(-0.8)     79%         -         0.0 km/h    1019.2 hpa     29.7º    0.0 mm
   25-09-2017    02:50      19.5º(-0.8)     79%         -         0.0 km/h    1019.2 hpa     29.7º    0.0 mm
   25-09-2017    02:45      19.6º(-0.8)     78%         -         0.0 km/h    1019.2 hpa     29.7º    0.0 mm
   25-09-2017    02:40      19.6º(-1.0)     78%         -         0.0 km/h    1019.2 hpa     29.7º    0.0 mm
   25-09-2017    02:35      19.6º(-1.0)     78%         -         0.0 km/h    1019.2 hpa     29.7º    0.0 mm
   25-09-2017    02:30      19.7º(-1.0)     77%         -         0.0 km/h    1019.2 hpa     29.7º    0.0 mm
   25-09-2017    02:25      19.8º(-0.9)     77%         -         0.0 km/h    1019.3 hpa     29.7º    0.0 mm
   25-09-2017    02:20      19.8º(-1.0)     76%         -         0.0 km/h    1019.3 hpa     29.7º    0.0 mm
   25-09-2017    02:15      20.0º(-0.9)     75%         -         0.0 km/h    1019.3 hpa     29.7º    0.0 mm
   25-09-2017    02:10      20.2º(-0.9)     74%         -         0.0 km/h    1019.3 hpa     29.7º    0.0 mm
   25-09-2017    02:05      20.2º(-1.1)     74%         -         0.0 km/h    1019.2 hpa     29.7º    0.0 mm
   25-09-2017    02:00      20.2º(-1.2)     75%      157(SE)      1.6 km/h    1019.2 hpa     29.7º    0.0 mm
   25-09-2017    01:55      20.2º(----)     75%         -         0.0 km/h    1019.2 hpa     29.7º    0.0 mm
   25-09-2017    01:50      20.2º(----)     75%         -         0.0 km/h    1019.3 hpa     29.7º    0.0 mm
   25-09-2017    01:45      20.2º(----)     75%         -         0.0 km/h    1019.2 hpa     29.7º    0.0 mm
   25-09-2017    01:40      20.2º(----)     75%         -         0.0 km/h    1019.2 hpa     29.7º    0.0 mm
   25-09-2017    01:35      20.3º(----)     74%         -         0.0 km/h    1019.3 hpa     29.7º    0.0 mm
   25-09-2017    01:30      20.4º(----)     74%      157(SE)      1.6 km/h    1019.2 hpa     29.7º    0.0 mm
   25-09-2017    01:25      20.5º(----)     74%         -         0.0 km/h    1019.2 hpa     29.7º    0.0 mm
   25-09-2017    01:20      20.6º(----)     73%         -         0.0 km/h    1019.3 hpa     29.7º    0.0 mm
   25-09-2017    01:15      20.7º(----)     72%         -         0.0 km/h    1019.3 hpa     29.7º    0.0 mm
   25-09-2017    01:10      20.8º(----)     71%      180 (S)      1.6 km/h    1019.3 hpa     29.7º    0.0 mm
   25-09-2017    01:05      20.9º(----)     71%      180 (S)      3.2 km/h    1019.3 hpa     29.7º    0.0 mm
   25-09-2017    01:00      21.1º(----)     70%         -         0.0 km/h    1019.2 hpa     29.7º    0.0 mm
   25-09-2017    00:55      21.4º(----)     69%         -         0.0 km/h    1019.2 hpa     29.7º    0.0 mm
   25-09-2017    00:50      21.9º(----)     67%         -         0.0 km/h    1019.1 hpa     29.8º    0.0 mm
   25-09-2017    00:45      22.4º(----)     63%         -         0.0 km/h    1019.1 hpa     29.8º    0.0 mm
   25-09-2017    00:40      22.8º(----)     61%         -         0.0 km/h    1019.1 hpa     29.8º    0.0 mm
   25-09-2017    00:35      23.5º(----)     59%         -         0.0 km/h    1019.1 hpa     29.8º    0.0 mm
   25-09-2017    00:30      23.7º(----)     58%      270 (W)      4.8 km/h    1019.1 hpa     29.8º    0.0 mm
   25-09-2017    00:25      23.7º(----)     57%      292 (W)      4.8 km/h    1019.1 hpa     29.8º    0.0 mm
   25-09-2017    00:20      23.8º(----)     57%      292 (W)      4.8 km/h    1019.1 hpa     29.8º    0.0 mm
   25-09-2017    00:15      23.9º(----)     57%      292 (W)      4.8 km/h    1019.1 hpa     29.8º    0.0 mm
   25-09-2017    00:10      23.9º(----)     57%      270 (W)      3.2 km/h    1019.1 hpa     29.8º    0.0 mm
   25-09-2017    00:05      24.1º(----)     57%      292 (W)      4.8 km/h    1019.1 hpa     29.8º    0.0 mm
   25-09-2017    00:00      24.2º(----)     56%      270 (W)      4.8 km/h    1019.0 hpa     29.8º    0.0 mm